Time;durP1;ratioP1;P1;durP2;ratioP2;P2;SDS_P1;SDS_P2;PMS_P1;PMS_P2;Temp;Humidity;BMP_temperature;BMP_pressure;BME280_temperature;BME280_humidity;BME280_pressure;Samples;Min_cycle;Max_cycle;Signal;HPM_P1;HPM_P2
2022/04/12 00:01:19;;;;;;;3.13;2.92;;;;;;;7.49;63.55;98241.38;4118605;28;20646;-60
2022/04/12 00:03:21;;;;;;;2.10;1.95;;;;;;;7.46;63.88;98244.53;4134582;28;20908;-54
2022/04/12 00:05:23;;;;;;;2.10;1.90;;;;;;;7.43;63.38;98243.13;4146446;28;20674;-57
2022/04/12 00:07:32;;;;;;;2.30;2.17;;;;;;;7.39;63.91;98232.94;4147602;28;20251;-56
2022/04/12 00:09:34;;;;;;;5.82;2.53;;;;;;;7.38;63.98;98234.03;4131994;28;20236;-57
2022/04/12 00:11:36;;;;;;;2.55;2.35;;;;;;;7.35;64.01;98238.03;4131076;28;20210;-56
2022/04/12 00:13:38;;;;;;;4.13;2.30;;;;;;;7.33;64.32;98231.19;4132035;28;20239;-58
2022/04/12 00:15:40;;;;;;;3.35;2.88;;;;;;;7.35;63.94;98226.34;4117550;28;20664;-58
2022/04/12 00:20:02;;;;;;;2.67;2.42;;;;;;;7.33;63.93;98229.28;4129383;28;20209;-58
2022/04/12 00:22:04;;;;;;;2.90;2.70;;;;;;;7.34;63.78;98227.38;4134523;28;20757;-57
2022/04/12 00:24:07;;;;;;;1.80;1.70;;;;;;;7.33;63.25;98229.28;4151345;28;20260;-59
2022/04/12 00:26:08;;;;;;;2.38;2.17;;;;;;;7.32;63.30;98226.81;4150097;28;20208;-56
2022/04/12 00:28:12;;;;;;;2.03;1.92;;;;;;;7.29;63.71;98225.38;4153338;28;20217;-58
2022/04/12 00:30:13;;;;;;;2.70;2.22;;;;;;;7.24;63.65;98219.00;4155146;28;20229;-58
2022/04/12 00:32:15;;;;;;;1.60;1.50;;;;;;;7.20;64.19;98215.06;4139366;28;20254;-56
2022/04/12 00:34:17;;;;;;;2.28;1.77;;;;;;;7.17;64.04;98221.00;4152981;28;20731;-58
2022/04/12 00:36:18;;;;;;;3.05;2.55;;;;;;;7.15;63.87;98220.41;4135712;28;20671;-59
2022/04/12 00:38:23;;;;;;;5.88;3.25;;;;;;;7.11;64.13;98216.50;4152328;28;20286;-56
2022/04/12 00:40:26;;;;;;;5.45;2.92;;;;;;;7.10;64.01;98217.56;4152161;28;21534;-58
2022/04/12 00:42:27;;;;;;;4.63;3.28;;;;;;;7.04;63.96;98221.22;4135743;28;20221;-58
2022/04/12 00:44:29;;;;;;;3.15;2.85;;;;;;;6.99;63.85;98219.22;4136262;28;20222;-58
2022/04/12 00:46:31;;;;;;;4.53;2.78;;;;;;;7.01;64.41;98213.53;4152003;28;20209;-59
2022/04/12 00:48:33;;;;;;;3.17;2.92;;;;;;;7.00;64.22;98217.31;4152020;28;20206;-59
2022/04/12 00:50:35;;;;;;;6.00;4.00;;;;;;;7.00;64.70;98206.44;4120325;28;20702;-59
2022/04/12 00:52:44;;;;;;;6.50;2.53;;;;;;;7.00;65.07;98220.03;4151054;28;20228;-57
2022/04/12 00:54:47;;;;;;;3.80;3.00;;;;;;;6.98;64.80;98212.13;4152144;28;20243;-56
2022/04/12 00:56:51;;;;;;;4.95;3.35;;;;;;;6.96;64.60;98205.25;4136139;28;20210;-57
2022/04/12 00:58:53;;;;;;;4.45;3.58;;;;;;;6.93;64.58;98219.31;4133731;28;20231;-56
2022/04/12 01:00:56;;;;;;;8.30;4.40;;;;;;;6.91;64.98;98222.28;4132724;28;20275;-57
2022/04/12 01:02:57;;;;;;;5.72;3.78;;;;;;;6.90;64.72;98223.31;4147180;28;20231;-57
2022/04/12 01:05:00;;;;;;;4.22;3.83;;;;;;;6.88;64.81;98221.94;4119100;28;20216;-58
2022/04/12 01:07:02;;;;;;;4.47;4.10;;;;;;;6.84;64.94;98209.84;4134704;28;20206;-59
2022/04/12 01:09:05;;;;;;;4.63;4.15;;;;;;;6.81;65.18;98210.28;4150624;28;20216;-56
2022/04/12 01:11:07;;;;;;;4.32;3.92;;;;;;;6.79;65.34;98207.00;4150039;28;20256;-57
2022/04/12 01:13:10;;;;;;;3.97;3.58;;;;;;;6.74;65.16;98209.56;4132323;28;21825;-56
2022/04/12 01:15:20;;;;;;;4.25;3.88;;;;;;;6.73;65.39;98199.75;4148947;28;20670;-58
2022/04/12 01:17:22;;;;;;;5.47;3.17;;;;;;;6.75;65.29;98205.81;4135314;28;20260;-56
2022/04/12 01:19:24;;;;;;;3.70;3.08;;;;;;;6.73;65.23;98206.03;4133270;28;20209;-58
2022/04/12 01:21:31;;;;;;;4.20;3.15;;;;;;;6.72;65.78;98198.13;4135614;28;20754;-57
2022/04/12 01:24:02;;;;;;;2.75;2.50;;;;;;;6.72;65.71;98203.56;4119930;28;20769;-57
2022/04/12 01:26:04;;;;;;;3.92;3.63;;;;;;;6.68;65.81;98197.75;4125934;28;20206;-55
2022/04/12 01:28:10;;;;;;;3.35;2.95;;;;;;;6.65;65.64;98200.13;4136942;28;20265;-57
2022/04/12 01:30:12;;;;;;;2.83;2.53;;;;;;;6.64;65.36;98193.03;4150683;28;20566;-56
2022/04/12 01:32:14;;;;;;;4.13;2.47;;;;;;;6.63;65.71;98196.81;4133882;28;20324;-58
2022/04/12 01:34:15;;;;;;;3.25;3.00;;;;;;;6.60;65.97;98202.69;4134381;28;20485;-55
2022/04/12 01:36:18;;;;;;;3.00;2.80;;;;;;;6.59;65.92;98195.59;4134982;28;20217;-56
2022/04/12 01:38:20;;;;;;;7.78;3.85;;;;;;;6.56;65.98;98190.66;4134125;28;20264;-57
2022/04/12 01:40:22;;;;;;;4.13;3.72;;;;;;;6.57;66.05;98197.72;4152077;28;20676;-55
2022/04/12 01:42:24;;;;;;;8.55;4.38;;;;;;;6.55;65.85;98194.44;4133990;28;20209;-56
2022/04/12 01:44:27;;;;;;;4.20;3.90;;;;;;;6.52;65.94;98189.44;4151142;28;20326;-56
2022/04/12 01:46:28;;;;;;;6.47;4.07;;;;;;;6.51;66.06;98198.66;4151193;28;20255;-58
2022/04/12 01:48:30;;;;;;;5.15;4.40;;;;;;;6.56;65.63;98196.09;4134561;28;20213;-57
2022/04/12 01:50:32;;;;;;;3.67;3.38;;;;;;;6.53;66.35;98199.25;4135888;28;20741;-57
2022/04/12 01:52:34;;;;;;;3.65;3.38;;;;;;;6.52;66.29;98194.88;4132943;28;20256;-56
2022/04/12 01:54:36;;;;;;;3.72;2.83;;;;;;;6.49;66.32;98198.06;4135974;28;20261;-56
2022/04/12 01:56:38;;;;;;;4.15;3.22;;;;;;;6.48;66.06;98197.22;4149193;28;21244;-57
2022/04/12 01:58:42;;;;;;;2.60;2.40;;;;;;;6.47;65.87;98197.44;4149923;28;20232;-58
2022/04/12 02:00:43;;;;;;;3.90;2.78;;;;;;;6.46;66.48;98190.38;4133201;28;20648;-59
2022/04/12 02:02:45;;;;;;;4.90;3.65;;;;;;;6.44;66.31;98192.50;4132351;28;20213;-57
2022/04/12 02:04:47;;;;;;;3.88;3.58;;;;;;;6.39;66.32;98192.34;4118162;28;20341;-57
2022/04/12 02:06:49;;;;;;;3.85;2.97;;;;;;;6.39;66.19;98189.63;4150221;28;20200;-58
2022/04/12 02:08:50;;;;;;;3.42;2.80;;;;;;;6.36;66.09;98185.50;4150304;28;20209;-57
2022/04/12 02:10:52;;;;;;;4.00;3.70;;;;;;;6.33;66.20;98185.13;4136170;28;21043;-57
2022/04/12 02:12:53;;;;;;;2.72;2.63;;;;;;;6.31;66.15;98189.97;4151724;28;20323;-57
2022/04/12 02:14:56;;;;;;;5.72;4.28;;;;;;;6.27;66.63;98191.47;4130579;28;20234;-58
2022/04/12 02:16:58;;;;;;;6.53;4.10;;;;;;;6.24;66.38;98191.97;4150364;28;20212;-58
2022/04/12 02:18:59;;;;;;;3.70;3.22;;;;;;;6.20;66.68;98190.75;4118338;28;20238;-58
2022/04/12 02:21:01;;;;;;;3.38;2.80;;;;;;;6.17;66.64;98180.34;4151471;28;20323;-57
2022/04/12 02:23:03;;;;;;;3.28;2.95;;;;;;;6.16;66.17;98184.13;4134043;28;20206;-58
2022/04/12 02:25:05;;;;;;;3.53;3.22;;;;;;;6.16;66.47;98192.28;4149207;28;20205;-57
2022/04/12 02:27:06;;;;;;;2.58;2.38;;;;;;;6.15;66.46;98185.19;4149290;28;20808;-58
2022/04/12 02:29:09;;;;;;;3.00;2.33;;;;;;;6.13;66.62;98174.56;4135237;28;20209;-57
2022/04/12 02:31:11;;;;;;;2.58;2.38;;;;;;;6.13;66.52;98176.44;4152064;28;20275;-58
2022/04/12 02:33:14;;;;;;;1.80;1.70;;;;;;;6.12;66.97;98185.66;4151576;28;20626;-57
2022/04/12 02:35:15;;;;;;;1.58;1.48;;;;;;;6.14;66.61;98192.50;4148541;28;20268;-56
2022/04/12 02:37:17;;;;;;;1.73;1.60;;;;;;;6.15;66.88;98188.72;4137481;28;20205;-56
2022/04/12 02:39:19;;;;;;;1.98;1.88;;;;;;;6.15;66.65;98193.34;4134643;28;20218;-56
2022/04/12 02:41:20;;;;;;;2.10;1.90;;;;;;;6.13;67.08;98188.13;4134594;28;20202;-58
2022/04/12 02:43:22;;;;;;;1.90;1.80;;;;;;;6.13;66.92;98184.56;4147142;28;20232;-57
2022/04/12 02:45:24;;;;;;;1.13;1.13;;;;;;;6.07;66.50;98185.50;4149310;28;20201;-56
2022/04/12 02:47:26;;;;;;;2.30;2.15;;;;;;;6.04;67.04;98186.78;4134003;28;20241;-55
2022/04/12 02:49:27;;;;;;;1.52;1.42;;;;;;;6.02;66.93;98182.66;4150239;28;20262;-57
2022/04/12 02:51:29;;;;;;;1.85;1.75;;;;;;;6.00;66.80;98179.31;4150408;28;20733;-57
2022/04/12 02:53:31;;;;;;;1.58;1.48;;;;;;;5.99;66.84;98177.66;4137214;28;20769;-56
2022/04/12 02:55:32;;;;;;;1.80;1.70;;;;;;;6.00;66.87;98177.44;4148402;28;20201;-60
2022/04/12 02:57:34;;;;;;;2.42;2.17;;;;;;;6.01;66.70;98179.09;4135677;28;20304;-59
2022/04/12 02:59:36;;;;;;;3.67;2.03;;;;;;;6.02;67.05;98188.09;4149130;28;20300;-56
2022/04/12 03:01:38;;;;;;;2.30;1.60;;;;;;;6.02;67.00;98182.66;4135286;28;20244;-58
2022/04/12 03:03:40;;;;;;;1.75;1.65;;;;;;;6.00;67.04;98184.75;4136146;28;20279;-58
2022/04/12 03:05:41;;;;;;;1.75;1.65;;;;;;;6.00;66.79;98182.03;4118527;28;20205;-58
2022/04/12 03:07:43;;;;;;;1.67;1.58;;;;;;;5.99;67.06;98180.38;4134735;28;20849;-59
2022/04/12 03:09:45;;;;;;;1.60;1.50;;;;;;;5.96;67.24;98178.97;4150992;28;20208;-58
2022/04/12 03:11:46;;;;;;;1.25;1.23;;;;;;;5.97;67.32;98179.78;4148425;28;20224;-57
2022/04/12 03:13:48;;;;;;;1.60;1.50;;;;;;;6.00;66.95;98173.91;4134645;28;20273;-58
2022/04/12 03:15:50;;;;;;;1.77;1.67;;;;;;;5.96;67.26;98178.16;4134621;28;20201;-57
2022/04/12 03:17:52;;;;;;;1.52;1.52;;;;;;;5.98;67.19;98173.31;4118615;28;20215;-58
2022/04/12 03:19:54;;;;;;;2.28;2.08;;;;;;;5.99;67.01;98173.09;4148187;28;20271;-56
2022/04/12 03:21:56;;;;;;;1.77;1.65;;;;;;;5.99;67.33;98175.78;4150408;28;21010;-56
2022/04/12 03:23:57;;;;;;;3.00;1.08;;;;;;;6.01;66.81;98180.97;4151895;28;20235;-56
2022/04/12 03:25:59;;;;;;;1.55;1.45;;;;;;;6.01;67.19;98180.97;4134333;28;20784;-57
2022/04/12 03:28:01;;;;;;;1.70;1.60;;;;;;;6.02;66.94;98182.66;4154048;28;21078;-56
2022/04/12 03:30:04;;;;;;;2.00;1.83;;;;;;;6.00;67.05;98184.75;4137949;28;20214;-57
2022/04/12 03:32:06;;;;;;;1.77;1.38;;;;;;;6.00;67.25;98179.31;4152695;28;20229;-58
2022/04/12 03:34:08;;;;;;;2.35;2.25;;;;;;;5.99;67.26;98181.22;4121513;28;20241;-56
2022/04/12 03:36:12;;;;;;;1.58;1.48;;;;;;;5.96;67.51;98183.56;4135295;28;20206;-56
2022/04/12 03:38:14;;;;;;;1.67;1.58;;;;;;;6.02;67.64;98178.03;4152947;28;20227;-55
2022/04/12 03:40:16;;;;;;;1.80;1.70;;;;;;;5.85;67.86;98170.75;4137615;28;20205;-56
2022/04/12 03:42:18;;;;;;;1.83;1.73;;;;;;;5.93;67.89;98179.44;4152075;28;20254;-56
2022/04/12 03:44:20;;;;;;;1.30;1.30;;;;;;;5.95;67.77;98171.06;4139089;28;20220;-55
2022/04/12 03:46:22;;;;;;;2.13;2.03;;;;;;;5.97;67.67;98177.09;4138252;28;20726;-55
2022/04/12 03:48:23;;;;;;;1.58;1.48;;;;;;;6.02;67.38;98177.22;4137707;28;20697;-58
2022/04/12 03:50:26;;;;;;;2.67;1.80;;;;;;;6.02;67.62;98174.50;4150632;28;20237;-57
2022/04/12 03:52:27;;;;;;;2.38;2.22;;;;;;;6.02;67.25;98177.22;4153657;28;20212;-56
2022/04/12 03:54:29;;;;;;;1.65;1.60;;;;;;;6.04;66.86;98185.97;4135784;28;20271;-58
2022/04/12 03:56:31;;;;;;;2.22;2.08;;;;;;;6.04;67.46;98180.53;4152430;28;21172;-57
2022/04/12 03:58:37;;;;;;;1.45;1.35;;;;;;;6.01;67.86;98172.84;4152656;28;20269;-58
2022/04/12 04:00:39;;;;;;;1.90;1.77;;;;;;;6.04;67.44;98186.78;4153885;28;20219;-56
2022/04/12 04:02:41;;;;;;;1.77;1.67;;;;;;;6.03;67.47;98178.88;4139493;28;20210;-58
2022/04/12 04:04:43;;;;;;;1.70;1.60;;;;;;;6.05;67.57;98171.31;4134103;28;20229;-57
2022/04/12 04:06:44;;;;;;;1.35;1.33;;;;;;;6.07;67.09;98180.91;4153091;28;20590;-59
2022/04/12 04:08:46;;;;;;;2.50;1.35;;;;;;;6.07;67.11;98177.34;4151207;28;20947;-58
2022/04/12 04:10:48;;;;;;;1.70;1.60;;;;;;;6.07;67.39;98183.63;4150982;28;20224;-58
2022/04/12 04:12:54;;;;;;;1.80;1.70;;;;;;;6.06;67.16;98178.41;4151612;28;20201;-56
2022/04/12 04:14:59;;;;;;;2.22;2.00;;;;;;;5.97;67.95;98168.94;4153565;28;20232;-57
2022/04/12 04:17:01;;;;;;;1.73;1.35;;;;;;;5.99;67.73;98183.94;4151434;28;20244;-57
2022/04/12 04:19:03;;;;;;;1.88;1.77;;;;;;;6.01;67.90;98181.81;4153256;28;20237;-56
2022/04/12 04:21:05;;;;;;;1.65;1.55;;;;;;;6.00;67.68;98173.91;4119869;28;20253;-57
2022/04/12 04:23:07;;;;;;;1.20;1.20;;;;;;;6.03;67.42;98173.44;4150972;28;20218;-56
2022/04/12 04:25:10;;;;;;;1.80;1.70;;;;;;;6.00;68.03;98174.75;4152132;28;20693;-58
2022/04/12 04:27:12;;;;;;;1.63;1.52;;;;;;;6.00;67.70;98177.44;4134221;28;22302;-56
2022/04/12 04:29:13;;;;;;;1.70;1.60;;;;;;;5.99;67.58;98177.66;4153235;28;20242;-56
2022/04/12 04:31:15;;;;;;;1.55;1.45;;;;;;;5.99;67.30;98172.25;4152420;28;20244;-57
2022/04/12 04:33:21;;;;;;;1.80;1.70;;;;;;;6.00;67.54;98171.19;4137048;28;20276;-57
2022/04/12 04:35:23;;;;;;;1.63;1.52;;;;;;;6.00;67.64;98173.91;4153627;28;20686;-57
2022/04/12 04:37:25;;;;;;;1.30;1.30;;;;;;;6.03;67.52;98178.88;4134863;28;20279;-56
2022/04/12 04:39:26;;;;;;;2.08;1.98;;;;;;;6.00;67.69;98179.31;4151498;28;20715;-56
2022/04/12 04:41:28;;;;;;;1.42;1.33;;;;;;;5.98;67.39;98182.28;4134674;28;20256;-56
2022/04/12 04:43:30;;;;;;;2.03;1.92;;;;;;;5.98;67.38;98189.59;4152204;28;20297;-56
2022/04/12 04:45:32;;;;;;;1.85;1.75;;;;;;;5.97;67.18;98196.09;4136599;28;20205;-57
2022/04/12 04:47:34;;;;;;;1.15;1.15;;;;;;;5.95;67.72;98193.59;4135930;28;20210;-57
2022/04/12 04:49:35;;;;;;;2.08;1.98;;;;;;;5.92;67.78;98194.06;4151027;28;20208;-56
2022/04/12 04:51:41;;;;;;;1.75;1.58;;;;;;;5.92;67.60;98187.78;4140530;28;20218;-56
2022/04/12 04:53:49;;;;;;;2.28;2.08;;;;;;;5.88;67.89;98179.28;4135747;28;20268;-58
2022/04/12 04:55:55;;;;;;;2.38;1.83;;;;;;;5.77;68.54;98185.44;4153931;28;20212;-57
2022/04/12 04:57:59;;;;;;;2.13;1.95;;;;;;;5.77;68.39;98187.34;4134034;28;20237;-57
2022/04/12 05:00:15;;;;;;;1.33;1.33;;;;;;;5.79;68.36;98187.94;4151518;28;20570;-56
2022/04/12 05:02:18;;;;;;;1.75;1.65;;;;;;;5.82;67.83;98195.66;4154247;28;20212;-56
2022/04/12 05:04:20;;;;;;;1.80;1.70;;;;;;;5.82;68.06;98190.22;4137670;28;20258;-58
2022/04/12 05:06:22;;;;;;;1.50;1.40;;;;;;;5.85;68.03;98198.75;4151012;23;20765;-57
2022/04/12 05:08:24;;;;;;;1.30;1.23;;;;;;;5.86;67.83;98199.56;4153101;28;20197;-57
2022/04/12 05:10:32;;;;;;;1.55;1.45;;;;;;;5.86;68.19;98202.28;4148166;28;20205;-56
2022/04/12 05:12:33;;;;;;;1.85;1.75;;;;;;;5.86;67.82;98191.41;4148907;28;20216;-56
2022/04/12 05:14:35;;;;;;;6.25;1.60;;;;;;;5.87;68.11;98190.34;4132534;28;20225;-59
2022/04/12 05:16:37;;;;;;;2.05;1.95;;;;;;;5.88;68.10;98197.47;4153692;28;20259;-57
2022/04/12 05:18:39;;;;;;;2.30;2.10;;;;;;;5.90;67.96;98207.03;4153638;28;20209;-57
2022/04/12 05:20:40;;;;;;;1.38;1.38;;;;;;;5.94;67.65;98212.81;4155414;28;20201;-57
2022/04/12 05:22:46;;;;;;;4.68;2.00;;;;;;;5.94;67.90;98204.69;4154039;28;20729;-57
2022/04/12 05:24:50;;;;;;;1.90;1.80;;;;;;;5.99;68.14;98202.13;4170982;28;20223;-57
2022/04/12 05:26:52;;;;;;;1.85;1.75;;;;;;;5.94;68.23;98201.97;4155878;28;20213;-57
2022/04/12 05:28:54;;;;;;;1.95;1.83;;;;;;;6.05;68.36;98196.59;4149764;28;20322;-58
2022/04/12 05:30:56;;;;;;;1.65;1.20;;;;;;;5.97;68.39;98212.38;4148239;28;20852;-58
2022/04/12 05:32:58;;;;;;;2.38;1.92;;;;;;;6.02;68.09;98207.09;4156637;28;20216;-58
2022/04/12 05:34:59;;;;;;;1.60;1.50;;;;;;;6.04;68.21;98199.53;4154551;28;20244;-58
2022/04/12 05:37:03;;;;;;;5.03;2.13;;;;;;;5.96;68.87;98205.28;4156019;28;20211;-57
2022/04/12 05:39:05;;;;;;;1.95;1.55;;;;;;;6.03;69.05;98211.47;4156661;28;20209;-56
2022/04/12 05:41:06;;;;;;;1.85;1.75;;;;;;;5.99;68.91;98202.13;4156750;28;20197;-58
2022/04/12 05:43:10;;;;;;;1.95;1.85;;;;;;;6.09;69.44;98211.38;4141838;28;20801;-57
2022/04/12 05:45:16;;;;;;;2.10;1.98;;;;;;;6.06;69.55;98197.41;4141457;28;20294;-56
2022/04/12 05:47:21;;;;;;;2.50;2.30;;;;;;;6.16;69.28;98195.00;4156177;23;20233;-57
2022/04/12 05:49:23;;;;;;;1.80;1.70;;;;;;;6.19;69.02;98192.66;4123714;28;20245;-57
2022/04/12 05:51:27;;;;;;;2.20;2.10;;;;;;;6.43;69.04;98207.16;4136911;28;20291;-57
2022/04/12 05:53:32;;;;;;;1.90;1.77;;;;;;;6.50;68.67;98207.88;4161131;28;20306;-56
2022/04/12 05:55:34;;;;;;;2.25;2.05;;;;;;;6.82;69.20;98217.41;4157266;28;20215;-58
2022/04/12 05:58:01;;;;;;;2.25;2.05;;;;;;;6.85;68.53;98212.34;4156425;28;20662;-56
2022/04/12 06:00:07;;;;;;;2.22;2.13;;;;;;;6.76;67.47;98215.63;4153157;28;20573;-56
2022/04/12 06:02:09;;;;;;;1.95;1.85;;;;;;;6.83;68.60;98213.63;4169813;28;20315;-56
2022/04/12 06:04:11;;;;;;;2.22;2.13;;;;;;;6.94;69.26;98213.66;4150638;28;20323;-56
2022/04/12 06:06:14;;;;;;;3.38;2.40;;;;;;;6.97;67.72;98204.19;4148903;28;20244;-56
2022/04/12 06:08:16;;;;;;;2.38;2.17;;;;;;;6.95;67.90;98211.78;4150776;28;20212;-56
2022/04/12 06:10:20;;;;;;;10.77;2.55;;;;;;;6.97;67.29;98205.00;4151910;28;20236;-56
2022/04/12 06:12:21;;;;;;;2.03;1.92;;;;;;;7.24;67.46;98199.94;4171847;28;20259;-56
2022/04/12 06:14:23;;;;;;;2.25;2.05;;;;;;;7.31;67.06;98211.53;4158945;28;20777;-56
2022/04/12 06:16:25;;;;;;;2.92;2.22;;;;;;;7.33;67.41;98198.50;4176019;28;20204;-57
2022/04/12 06:18:27;;;;;;;2.33;2.13;;;;;;;7.43;67.33;98198.75;4158964;28;20296;-55
2022/04/12 06:20:28;;;;;;;2.17;2.03;;;;;;;7.61;67.24;98206.81;4158254;28;20209;-57
2022/04/12 06:22:30;;;;;;;2.88;2.67;;;;;;;8.16;67.77;98218.88;4158917;28;20200;-56
2022/04/12 06:24:32;;;;;;;2.22;2.03;;;;;;;8.31;66.85;98224.66;4172885;28;20227;-56
2022/04/12 06:26:33;;;;;;;2.55;2.05;;;;;;;8.84;64.93;98227.81;4173592;28;20261;-56
2022/04/12 06:28:35;;;;;;;2.25;2.05;;;;;;;9.20;64.63;98219.16;4158081;28;20369;-55
2022/04/12 06:30:37;;;;;;;2.22;2.03;;;;;;;9.49;63.67;98224.25;4158758;28;20251;-56
2022/04/12 06:32:39;;;;;;;2.10;1.90;;;;;;;9.45;63.06;98222.28;4157306;28;20232;-56
2022/04/12 06:34:40;;;;;;;2.30;2.10;;;;;;;9.77;63.64;98220.59;4157608;28;20225;-56
2022/04/12 06:36:42;;;;;;;2.05;1.85;;;;;;;9.97;61.50;98229.06;4153491;28;20219;-56
2022/04/12 06:38:44;;;;;;;2.03;1.92;;;;;;;10.15;60.83;98234.25;4156331;28;20240;-55
2022/04/12 06:40:48;;;;;;;1.73;1.63;;;;;;;10.31;59.63;98227.88;4169343;28;20199;-57
2022/04/12 06:42:51;;;;;;;2.30;2.10;;;;;;;10.21;60.58;98235.97;4136803;28;20597;-56
2022/04/12 06:44:53;;;;;;;1.70;1.50;;;;;;;10.26;59.75;98236.00;4154550;28;20928;-55
2022/04/12 06:46:55;;;;;;;1.50;1.40;;;;;;;10.57;59.50;98238.03;4169653;28;20215;-54
2022/04/12 06:48:57;;;;;;;1.92;1.77;;;;;;;10.73;58.96;98234.38;4156694;28;20208;-55
2022/04/12 06:50:58;;;;;;;2.05;1.67;;;;;;;11.00;58.81;98234.13;4147650;28;20208;-55
2022/04/12 06:53:01;;;;;;;2.53;2.40;;;;;;;11.26;58.31;98238.75;4153155;28;21198;-55
2022/04/12 06:55:03;;;;;;;1.80;1.70;;;;;;;11.63;57.39;98245.09;4150334;28;20690;-54
2022/04/12 06:57:05;;;;;;;1.65;1.55;;;;;;;11.96;56.59;98233.78;4171076;28;20669;-54
2022/04/12 06:59:07;;;;;;;1.20;1.20;;;;;;;12.09;56.79;98233.31;4169546;28;20298;-55
2022/04/12 07:01:09;;;;;;;2.05;1.35;;;;;;;12.59;56.00;98222.56;4155619;28;20236;-55
2022/04/12 07:03:11;;;;;;;1.58;1.45;;;;;;;11.96;55.86;98222.81;4157702;28;21187;-57
2022/04/12 07:05:14;;;;;;;1.65;1.50;;;;;;;12.19;56.55;98227.88;4175757;28;20286;-57
2022/04/12 07:07:17;;;;;;;1.45;1.35;;;;;;;12.37;55.50;98230.13;4152652;28;20205;-54
2022/04/12 07:09:20;;;;;;;1.95;1.85;;;;;;;12.24;55.58;98235.31;4152139;28;20213;-54
2022/04/12 07:11:22;;;;;;;1.40;1.30;;;;;;;12.50;55.79;98231.56;4159624;28;20258;-54
2022/04/12 07:13:23;;;;;;;1.73;1.63;;;;;;;12.72;55.68;98226.69;4173958;28;20224;-56
2022/04/12 07:15:25;;;;;;;1.50;1.40;;;;;;;12.85;55.49;98221.50;4135936;28;20220;-55
2022/04/12 07:17:27;;;;;;;1.25;1.15;;;;;;;13.48;54.35;98223.78;4150528;28;20201;-54
2022/04/12 07:19:29;;;;;;;1.15;1.05;;;;;;;13.60;53.35;98229.00;4166147;28;20204;-55
2022/04/12 07:21:31;;;;;;;1.33;1.23;;;;;;;13.64;52.98;98224.59;4136656;28;20824;-54
2022/04/12 07:23:36;;;;;;;1.40;1.30;;;;;;;13.11;53.36;98220.47;4152110;28;20275;-54
2022/04/12 07:25:38;;;;;;;1.92;1.80;;;;;;;13.50;53.55;98213.31;4153812;28;20213;-54
2022/04/12 07:27:40;;;;;;;1.50;1.40;;;;;;;14.27;52.44;98224.75;4154000;28;20204;-56
2022/04/12 07:29:42;;;;;;;1.52;1.30;;;;;;;14.41;52.05;98220.28;4152481;28;20204;-56
2022/04/12 07:31:43;;;;;;;2.75;1.48;;;;;;;14.39;52.18;98222.50;4149428;28;20259;-53
2022/04/12 07:33:45;;;;;;;1.45;1.35;;;;;;;14.18;51.03;98215.41;4153472;28;20263;-55
2022/04/12 07:35:47;;;;;;;1.42;1.02;;;;;;;13.99;51.82;98211.63;4150494;28;20204;-53
2022/04/12 07:37:49;;;;;;;1.33;1.23;;;;;;;13.69;52.07;98206.16;4166603;28;20756;-55
2022/04/12 07:39:50;;;;;;;1.40;1.30;;;;;;;13.55;52.34;98213.34;4154967;28;20302;-55
2022/04/12 07:41:52;;;;;;;1.67;1.58;;;;;;;14.27;51.81;98213.75;4153109;28;20196;-53
2022/04/12 07:43:54;;;;;;;1.33;1.23;;;;;;;14.19;51.99;98222.59;4171170;28;20615;-53
2022/04/12 07:45:56;;;;;;;1.05;0.90;;;;;;;14.38;51.77;98226.34;4137141;28;20671;-54
2022/04/12 07:48:17;;;;;;;1.05;1.00;;;;;;;14.32;51.98;98222.00;4154405;28;20232;-54
2022/04/12 07:50:19;;;;;;;1.30;1.20;;;;;;;14.62;51.56;98227.34;4167441;28;20298;-55
2022/04/12 07:52:21;;;;;;;1.13;1.02;;;;;;;15.06;50.92;98217.19;4155132;28;20305;-56
2022/04/12 07:54:22;;;;;;;1.23;1.13;;;;;;;15.06;50.49;98225.44;4148414;28;20228;-56
2022/04/12 07:56:24;;;;;;;1.20;1.10;;;;;;;15.31;50.35;98227.19;4153343;28;20299;-53
2022/04/12 07:58:26;;;;;;;1.55;1.10;;;;;;;14.82;51.09;98227.25;4169628;28;20609;-55
2022/04/12 08:00:32;;;;;;;1.60;1.50;;;;;;;14.91;50.71;98225.53;4158694;28;20240;-55
2022/04/12 08:02:34;;;;;;;1.20;1.08;;;;;;;15.18;50.02;98225.94;4170278;28;20200;-56
2022/04/12 08:04:35;;;;;;;0.90;0.90;;;;;;;15.13;50.57;98228.72;4155419;28;20233;-55
2022/04/12 08:06:38;;;;;;;1.40;1.30;;;;;;;14.94;50.43;98219.47;4151413;28;20295;-55
2022/04/12 08:08:40;;;;;;;1.00;0.90;;;;;;;14.60;51.49;98221.31;4154951;28;20212;-54
2022/04/12 08:10:42;;;;;;;3.22;1.20;;;;;;;15.05;51.01;98210.03;4168876;28;20248;-55
2022/04/12 08:12:45;;;;;;;1.05;1.00;;;;;;;15.44;50.30;98213.59;4168752;28;20269;-55
2022/04/12 08:14:47;;;;;;;0.85;0.85;;;;;;;15.57;49.83;98204.66;4139309;28;20237;-54
2022/04/12 08:16:49;;;;;;;1.40;0.90;;;;;;;15.68;48.89;98208.97;4155028;28;20219;-55
2022/04/12 08:18:50;;;;;;;0.77;0.77;;;;;;;15.64;49.45;98210.66;4169984;28;20207;-55
2022/04/12 08:20:54;;;;;;;1.15;1.02;;;;;;;15.87;49.02;98206.31;4166935;28;20682;-54
2022/04/12 08:22:56;;;;;;;0.85;0.85;;;;;;;15.91;48.71;98204.63;4153369;28;20300;-53
2022/04/12 08:24:58;;;;;;;1.08;0.98;;;;;;;15.62;48.63;98204.63;4154540;28;20236;-55
2022/04/12 08:27:00;;;;;;;1.58;1.02;;;;;;;15.32;49.21;98204.06;4171884;28;20211;-54
2022/04/12 08:29:02;;;;;;;0.88;0.88;;;;;;;15.06;50.24;98211.69;4150775;28;20209;-53
2022/04/12 08:31:04;;;;;;;1.13;1.00;;;;;;;15.45;49.84;98215.28;4156302;28;20483;-53
2022/04/12 08:33:06;;;;;;;0.98;0.82;;;;;;;15.67;49.68;98212.84;4151528;28;20287;-54
2022/04/12 08:35:09;;;;;;;0.90;0.90;;;;;;;15.72;49.79;98203.69;4168097;28;20204;-54
2022/04/12 08:37:11;;;;;;;1.55;0.82;;;;;;;15.83;48.94;98208.81;4153969;28;20223;-53
2022/04/12 08:39:13;;;;;;;0.80;0.80;;;;;;;16.08;48.75;98208.56;4156803;28;20208;-52
2022/04/12 08:41:15;;;;;;;1.02;0.95;;;;;;;16.51;48.53;98201.19;4155911;28;20209;-54
2022/04/12 08:43:19;;;;;;;1.08;0.98;;;;;;;16.72;47.08;98202.56;4134583;28;20215;-54
2022/04/12 08:45:21;;;;;;;1.58;0.60;;;;;;;17.00;47.84;98194.16;4154148;28;20212;-54
2022/04/12 08:47:23;;;;;;;0.60;0.60;;;;;;;16.84;46.21;98195.47;4152827;28;20314;-53
2022/04/12 08:49:26;;;;;;;2.55;1.10;;;;;;;16.74;46.85;98192.88;4158528;28;20228;-53
2022/04/12 08:51:28;;;;;;;0.95;0.80;;;;;;;17.60;46.46;98196.78;4175591;28;20207;-53
2022/04/12 08:53:31;;;;;;;0.82;0.52;;;;;;;18.10;46.09;98192.25;4158304;28;20327;-54
2022/04/12 08:55:33;;;;;;;0.95;0.70;;;;;;;18.41;45.65;98193.34;4157982;28;20208;-54
2022/04/12 08:57:35;;;;;;;0.50;0.50;;;;;;;18.73;44.81;98201.53;4175462;28;20200;-53
2022/04/12 08:59:38;;;;;;;0.50;0.50;;;;;;;18.49;44.92;98198.16;4153606;28;20212;-54
2022/04/12 09:01:41;;;;;;;0.63;0.50;;;;;;;18.28;44.79;98202.44;4169081;28;20211;-53
2022/04/12 09:03:49;;;;;;;0.90;0.90;;;;;;;18.14;43.45;98196.91;4135939;28;20233;-60
2022/04/12 09:05:52;;;;;;;0.70;0.68;;;;;;;18.37;43.99;98204.22;4156892;28;20200;-50
2022/04/12 09:07:54;;;;;;;0.70;0.60;;;;;;;18.52;43.81;98203.09;4142619;28;20101;-50
2022/04/12 09:10:06;;;;;;;1.00;0.63;;;;;;;19.20;43.83;98203.81;4158506;28;20230;-50
2022/04/12 09:12:12;;;;;;;0.40;0.40;;;;;;;19.85;42.72;98196.66;4155697;28;20202;-50
2022/04/12 09:14:14;;;;;;;0.43;0.43;;;;;;;19.33;43.12;98205.75;4142761;28;20229;-49
2022/04/12 09:16:17;;;;;;;0.52;0.50;;;;;;;19.97;42.32;98189.38;4159448;28;20209;-49
2022/04/12 09:18:42;;;;;;;0.43;0.43;;;;;;;19.85;41.62;98189.13;4143222;28;20218;-50
2022/04/12 09:20:44;;;;;;;0.65;0.55;;;;;;;20.32;40.96;98187.59;4175241;28;20666;-50
2022/04/12 09:22:46;;;;;;;0.38;0.38;;;;;;;20.81;40.41;98190.03;4175080;28;20635;-50
2022/04/12 09:25:10;;;;;;;0.40;0.40;;;;;;;20.72;39.60;98189.22;4158337;28;20230;-49
2022/04/12 09:27:13;;;;;;;0.30;0.30;;;;;;;21.16;40.01;98180.63;4176284;28;20208;-49
2022/04/12 09:29:15;;;;;;;0.30;0.30;;;;;;;21.12;40.07;98185.22;4152294;28;20606;-49
2022/04/12 09:31:18;;;;;;;0.60;0.40;;;;;;;21.03;39.28;98176.03;4173609;28;20208;-49
2022/04/12 09:33:36;;;;;;;0.50;0.50;;;;;;;19.92;38.66;98172.81;4156416;28;20262;-49
2022/04/12 09:35:38;;;;;;;0.40;0.40;;;;;;;19.79;39.52;98164.59;4156965;28;20204;-49
2022/04/12 09:37:42;;;;;;;0.50;0.40;;;;;;;19.88;39.88;98168.22;4157241;28;20209;-49
2022/04/12 09:40:07;;;;;;;0.47;0.47;;;;;;;20.31;39.85;98166.53;4175451;28;20203;-49
2022/04/12 09:42:09;;;;;;;0.30;0.30;;;;;;;20.60;39.48;98161.22;4150889;28;20734;-49
2022/04/12 09:44:16;;;;;;;0.30;0.30;;;;;;;21.09;39.29;98158.03;4175114;28;20239;-49
2022/04/12 09:46:18;;;;;;;1.08;0.80;;;;;;;20.94;38.40;98152.97;4173885;28;20203;-49